Pomona, IL (62975)

02:32 CST le 18 décembre 2014 (GMT -0600)
Cedar Lake Boat Launch | Change Station
CLOSE
Current Station
Stations météorologiques personnelles
Location: Carbondale, IL
Altitude: 548 ft
Stations météo à proximité
Avis météorologiques actifs: Special Statement

Alt. 548 ft 37.67 °N, 89.27 °W | Updated 3 minutes ago

Neige
Neige
32.5 ° F
Paraît 32 ° F
N
1.0
Vent Variable Vent de Est
Gusts 6.0 mph

Aujourd'hui
Haut(e) -- | Bas -- ° F
--% Risque de précip.
Hier
Haut(e) -- | Bas -- ° F
Precip. -- pouce
7:07 AM 4:41 PM
Lune descendante, 16% visible
Pression 30.30 pouce
Visibilité 10.0 Miles terrestres
Nuages Couvert 8000 ft
Refroidissement éolien 32 ° F
Point de rosée 29 ° F
Humidité 85%
Précipitations 0.00 pouce
Profondeur de la couche neigeuse Non disponible.
UV 0 sur 12
Pollen 1.60 sur 12
Qualité de l'air Non disponible.
Flu Activity Non disponible.
METAR KMDH 180752Z AUTO 06006KT 10SM OVC080 00/M03 A3028 RMK AO2 SLP258 T00001033

More Conditions Fewer Conditions

Pression 30.30 pouce
Visibilité 10.0 Miles terrestres
Nuages Couvert 8000 ft
Refroidissement éolien 32 ° F
Point de rosée 29 ° F
Humidité 85%
Précipitations 0.00 pouce
Profondeur de la couche neigeuse Non disponible.
UV 0 sur 12
Pollen 1.60 sur 12
Qualité de l'air Non disponible.
Flu Activity Non disponible.
METAR KMDH 180752Z AUTO 06006KT 10SM OVC080 00/M03 A3028 RMK AO2 SLP258 T00001033

More Conditions Fewer Conditions

10-Day Weather Forecast

Almanac

Astronomie

Dec. 18, 2014 Lever Coucher
Temps réel
Crépuscule civil
Crépuscule nautique
Crépuscule astronomique
Lune
Durée de lumière visible
Longueur du jour
Tomorrow will be .
, % of the Moon is Illuminated

Extrêmes aujourd'hui

State Highs State Lows

Community

WunderPhotos

Upload Photos

1,778,907 Photos téléchargées !

WunderBlogs® & News

Nearby

Qualité de l'air

  Qualité de l'air Indice de la qualité de l'air Polluant
Not available.

Épaisseur de neige

Station Depth Altitude

Activité sismique

Ville Distance Mag. Time & Date
Minimum magnitude displayed is 2.5.

Températures des eaux côtières

Lieu Température

Stations météo à proximité